Aérodrome :
LOGIN :

S'inscrire | Disclaimer

   EN    FR    IT 

 










Légende :    VFR   VFR Marginal   IFR   IFR Intensif   IFR Très Intensif
Visi : 
Plafond : 
>= 8 km
>= 3000ft
5 à 8 km
1000 à 3000 ft
1500m à 5 km
500 à 1000 ft
800 à 1500m
200 à 500 ft
< 800m
< 200 ft
Symboles :   Orages  Brouillard  Fortes neiges  Fortes précipitations  Vent > 20 kt
SIGMETs :   Divers  Orages  Givrage  Turbulence  Onde Orograph.  Cendres Volcan.






- Altitude de l'aérodrome : 247 ft
- Code IATA : BLL


EKBI - Billund

DERNIER METAR :
  • 200950Z AUTO 17011KT 140V200 3200 -RA BR OVC004/// 06/05 Q1006 RERA

METARs EXPIRÉS :
  • 200920Z AUTO 17011KT 8000 RA OVC004/// 05/05 Q1006
  • 200850Z AUTO 17009KT 140V200 9999 RA OVC004/// 05/04 Q1007
  • 200820Z AUTO 16012KT 9000 -RA OVC004/// 05/04 Q1007
  • 200750Z AUTO 17011KT 140V200 7000 -RA OVC005/// 04/04 Q1007
  • 200720Z AUTO 17011KT 7000 -RA OVC004/// 04/04 Q1008

TAF TAF EKBI
Valide du 20 à 06h jusqu'au 21 à 06h UTC


200501Z 2006/2106 19012KT 2000 RADZ BR BKN003
TEMPO 2006/2013 19015G25KT 6000 -RADZ BKN012
TEMPO 2013/2020 19020G35KT 8000 -RADZ BKN015
BECMG 2020/2022 29018G28KT 9999 NSW SCT020
TEMPO 2102/2106 SHRA SCT020CB



MET'MAP, la Météo Aéronautique d'un coup d'oeil ! - Copyright ORBIFLY Décembre 2007 - Disclaimer

ORBIFLY MET'MAP TEAM :

Programmation & Développement : Alexandra Zaïnal
Sur une idée originale de : Baudouin d'Aumeries
Assistance à la programmation : Marc-Olivier Méhu
Soutien technique & logistique : Manuel Goepfert

Contact : metmap@orbifly.com




SOURCES & CREDITS :

   NOAA